Crestview, FL (32539)

2:44 PM CDT on July 29, 2015 (GMT -0500)
Steeplechase | | Change Station
CLOSE
Current Station
Personal Weather Station
Location: Crestview, FL
Elevation: 250 ft
Nearby Weather Stations
Active Advisory: Heat Advisory

Elev 250 ft 30.73 °N, 86.56 °W | Updated 6 seconds ago

Clear
Clear
94.9 °F
Feels Like 109 °F
N
0.0
Wind Variable Wind from NNE
Gusts 3.0 mph

Today
High -- | Low -- °F
--% Chance of Precip.
Yesterday
High -- | Low -- °F
Precip. -- in
6:01 AM 7:43 PM
Waxing Gibbous, 96% visible
Pressure 29.95 in
Visibility 10.0 miles
Clouds Clear
Heat Index 109 °F
Dew Point 77 °F
Humidity 56%
Rainfall 0.00 in
Snow Depth Not available.
UV 11 out of 12
Pollen 3.30 out of 12
Air Quality Not available.
Flu Activity Not available.
SPECI KCEW 291938Z AUTO VRB03KT 10SM CLR 34/23 A2995 RMK AO2 LTG DSNT SE-W T03440228

More Conditions Fewer Conditions

Pressure 29.95 in
Visibility 10.0 miles
Clouds Clear
Heat Index 109 °F
Dew Point 77 °F
Humidity 56%
Rainfall 0.00 in
Snow Depth Not available.
UV 11 out of 12
Pollen 3.30 out of 12
Air Quality Not available.
Flu Activity Not available.
SPECI KCEW 291938Z AUTO VRB03KT 10SM CLR 34/23 A2995 RMK AO2 LTG DSNT SE-W T03440228

More Conditions Fewer Conditions

10-Day Weather Forecast

×

Almanac

Astronomy

Jul. 29, 2015 Rise Set
Actual Time
Civil Twilight
Nautical Twilight
Astronomical Twilight
Moon
Length of Visible Light
Length of Day
Tomorrow will be .
, % of the Moon is Illuminated

Today's Extremes

State Highs State Lows

Community

WunderPhotos

Upload Photos

1,842,156 photos uploaded!

WunderBlogs® & News

Nearby

Air Quality

  Air Quality AQ Index Pollutant
Not available.

Snow Depth

Station Depth Elevation

Earthquake Activity

City Distance Mag. Time & Date
Minimum magnitude displayed is 2.5.

Coastal Water Temperatures

Place Temperature

Stations

Nearby Weather Stations

Station Location Temp. Windchill Dew Point Humidity Wind Precip. Elev Updated Type
                   
Heat Advisory
Statement as of 12:09 PM CDT on July 29, 2015

... Heat advisory remains in effect until 7 PM CDT this evening...

* temperature... afternoon highs between 93 and 98 degrees at
most locations.

* Heat index... maximum readings between 108 and 112 degrees.

* Impacts... hot temperatures and high humidity could lead to
heat related illnesses.

Precautionary/preparedness actions...

A heat advisory means that a period of hot temperatures is
expected. The combination of hot temperatures and high humidity
will combine to create a situation in which heat illnesses are
possible. Drink plenty of fluids... stay in an air-conditioned
room... stay out of the sun... and check up on relatives and
neighbors.